Flight Track Log - Related Links

Times and Time Zones

All times are in EDT time to prevent confusion due to time zone crossing. See the SWA757 flight status page for this flight to view local times or setup timezone preferences in your user account.

Time Position Orientation Groundspeed Altitude Reporting Facility
EDT Latitude Longitude Course Direction KTS MPH feet Rate Location/Type
Sun 07:55:19 AM 39.1833 -76.7000 270° West 160 184 1,700  Level Potomac TRACON
Sun 07:56:19 AM 39.1833 -76.7833 270° West 211 243 4,200 2,737 Climbing Potomac TRACON
Sun 07:57:13 AM 39.2000 -76.8667 284° West 256 295 6,900 3,263 Climbing Potomac TRACON
Sun 07:58:13 AM 39.2167 -76.9500 284° West 272 313 10,400 2,950 Climbing Potomac TRACON
Sun 07:59:13 AM 39.1667 -77.0500 237° Southwest 331 381 12,800 2,922 Climbing Potomac TRACON
Sun 08:00:08 AM 39.1000 -77.1167 218° Southwest 350 403 16,000 2,890 Climbing Potomac TRACON
Sun 08:02:24 AM 38.9242 -77.2967 219° Southwest 381 438 22,000 2,480 Climbing Washington Center
Sun 08:03:24 AM 38.8311 -77.3958 220° Southwest 397 457 24,100 2,542 Climbing Washington Center
Sun 08:04:22 AM 38.7422 -77.4842 218° Southwest 417 480 27,000 1,815 Climbing Washington Center
Sun 08:05:23 AM 38.6489 -77.5828 220° Southwest 432 497 27,700 1,462 Climbing Washington Center
Sun 08:06:21 AM 38.5575 -77.6892 222° Southwest 445 512 29,900 1,966 Climbing Washington Center
Sun 08:07:22 AM 38.4925 -77.8253 239° Southwest 445 512 31,600 1,902 Climbing Washington Center
Sun 08:08:24 AM 38.4314 -77.9611 240° Southwest 450 518 33,800 1,967 Climbing Washington Center
Sun 08:09:24 AM 38.3658 -78.1022 239° Southwest 455 524 35,600 1,700 Climbing Washington Center
Sun 08:10:24 AM 38.2981 -78.2533 240° Southwest 460 529 37,200 1,881 Climbing Washington Center
Sun 08:11:22 AM 38.2367 -78.3858 239° Southwest 447 514 39,300 1,412 Climbing Washington Center
Sun 08:12:23 AM 38.1772 -78.5183 240° Southwest 440 506 40,000 347 Climbing Washington Center
Sun 08:13:23 AM 38.1219 -78.6456 241° Southwest 427 491 40,000  Level Washington Center
Sun 08:14:22 AM 38.0600 -78.7803 240° Southwest 427 491 40,000  Level Washington Center
Sun 08:15:23 AM 37.9981 -78.9067 238° Southwest 432 497 40,000  Level Washington Center
Sun 08:16:23 AM 37.9447 -79.0256 240° Southwest 432 497 40,000  Level Washington Center
Sun 08:17:22 AM 37.8847 -79.1569 240° Southwest 432 497 40,000  Level Washington Center
Sun 08:18:23 AM 37.8347 -79.2914 245° Southwest 432 497 40,000  Level Washington Center
Sun 08:19:22 AM 37.7778 -79.4436 245° Southwest 426 490 40,000  Level Washington Center
Sun 08:20:24 AM 37.7233 -79.5800 243° Southwest 431 496 40,000  Level Washington Center
Sun 08:21:22 AM 37.6644 -79.7106 240° Southwest 436 502 40,000  Level Washington Center
Sun 08:22:23 AM 37.6164 -79.8339 244° Southwest 441 507 40,000  Level Washington Center
Sun 08:24:21 AM 37.5072 -80.1125 244° Southwest 463 533 40,000  Level Atlanta Center
Sun 08:25:21 AM 37.4450 -80.2594 242° Southwest 447 514 40,000  Level Atlanta Center
Sun 08:26:21 AM 37.3908 -80.3978 244° Southwest 441 507 40,000  Level Atlanta Center
Sun 08:27:21 AM 37.3344 -80.5361 243° Southwest 441 507 40,000  Level Atlanta Center
Sun 08:28:21 AM 37.2836 -80.6583 242° Southwest 441 507 40,000  Level Atlanta Center
Sun 08:29:21 AM 37.2308 -80.7911 244° Southwest 441 507 40,000  Level Atlanta Center
Sun 08:30:21 AM 37.1742 -80.9289 243° Southwest 441 507 40,000  Level Atlanta Center
Sun 08:31:21 AM 37.1147 -81.0611 241° Southwest 435 501 40,000  Level Atlanta Center
Sun 08:32:21 AM 37.0517 -81.2092 242° Southwest 444 511 40,000  Level Atlanta Center
Sun 08:33:21 AM 36.9942 -81.3386 241° Southwest 441 507 40,000  Level Atlanta Center
Sun 08:34:21 AM 36.9344 -81.4731 241° Southwest 441 507 40,000  Level Atlanta Center
Sun 08:35:21 AM 36.8808 -81.6072 243° Southwest 435 501 40,000  Level Atlanta Center
Sun 08:36:21 AM 36.8231 -81.7386 241° Southwest 441 507 40,000  Level Atlanta Center
Sun 08:37:21 AM 36.7606 -81.8700 239° Southwest 441 507 40,000  Level Atlanta Center
Sun 08:38:21 AM 36.7044 -82.0036 242° Southwest 441 507 40,000  Level Atlanta Center
Sun 08:39:21 AM 36.6442 -82.1369 241° Southwest 441 507 40,000  Level Atlanta Center
Sun 08:40:21 AM 36.5836 -82.2731 241° Southwest 446 513 40,000  Level Atlanta Center
Sun 08:41:21 AM 36.5228 -82.4033 240° Southwest 446 513 40,000  Level Atlanta Center
Sun 08:42:21 AM 36.4619 -82.5364 240° Southwest 446 513 40,000  Level Atlanta Center
Sun 08:43:21 AM 36.4011 -82.6717 241° Southwest 446 513 40,000  Level Atlanta Center
Sun 08:44:21 AM 36.3481 -82.7911 241° Southwest 446 513 40,000  Level Atlanta Center
Sun 08:45:21 AM 36.2869 -82.9261 241° Southwest 446 513 40,000  Level Atlanta Center
Sun 08:46:21 AM 36.2253 -83.0556 239° Southwest 451 519 40,000  Level Atlanta Center
Sun 08:47:21 AM 36.1639 -83.1925 241° Southwest 451 519 40,000  Level Atlanta Center
Sun 08:48:21 AM 36.1042 -83.3242 241° Southwest 451 519 40,000  Level Atlanta Center
Sun 08:49:21 AM 36.0422 -83.4533 239° Southwest 451 519 40,000  Level Atlanta Center
Sun 08:50:21 AM 35.9783 -83.5975 241° Southwest 446 513 40,000  Level Atlanta Center
Sun 08:51:21 AM 35.9181 -83.7286 240° Southwest 446 513 40,000  Level Atlanta Center
Sun 08:52:21 AM 35.8558 -83.8594 240° Southwest 446 513 40,000  Level Atlanta Center
Sun 08:53:21 AM 35.7933 -83.9900 239° Southwest 446 513 40,000  Level Atlanta Center
Sun 08:54:21 AM 35.7328 -84.1181 240° Southwest 440 506 40,000  Level Atlanta Center
Sun 08:55:21 AM 35.6700 -84.2508 240° Southwest 445 512 40,000  Level Atlanta Center
Sun 08:56:21 AM 35.6072 -84.3811 239° Southwest 445 512 40,000  Level Atlanta Center
Sun 08:57:21 AM 35.5442 -84.5108 239° Southwest 445 512 40,000  Level Atlanta Center
Sun 08:58:21 AM 35.4811 -84.6433 240° Southwest 445 512 40,000  Level Atlanta Center
Sun 08:59:21 AM 35.4261 -84.7575 239° Southwest 445 512 40,000  Level Atlanta Center
Sun 09:00:21 AM 35.3628 -84.8894 240° Southwest 445 512 40,000  Level Atlanta Center
Sun 09:01:21 AM 35.3014 -85.0186 240° Southwest 445 512 40,000  Level Atlanta Center
Sun 09:02:21 AM 35.2375 -85.1500 239° Southwest 445 512 40,000  Level Atlanta Center
Sun 09:03:21 AM 35.1739 -85.2786 239° Southwest 445 512 40,000  Level Atlanta Center
Sun 09:04:21 AM 35.1097 -85.4072 239° Southwest 445 512 40,000  Level Atlanta Center
Sun 09:05:21 AM 35.0478 -85.5356 240° Southwest 445 512 40,000  Level Atlanta Center
Sun 09:06:21 AM 34.9836 -85.6664 239° Southwest 445 512 40,000  Level Atlanta Center
Sun 09:07:21 AM 34.9172 -85.7942 238° Southwest 450 518 40,000  Level Atlanta Center
Sun 09:08:21 AM 34.8567 -85.9219 240° Southwest 445 512 40,000  Level Atlanta Center
Sun 09:09:21 AM 34.7900 -86.0519 238° Southwest 450 518 40,000  Level Atlanta Center
Sun 09:10:21 AM 34.7272 -86.1819 240° Southwest 450 518 40,000  Level Atlanta Center
Sun 09:11:21 AM 34.6625 -86.3117 239° Southwest 450 518 40,000  Level Atlanta Center
Sun 09:12:21 AM 34.5953 -86.4386 237° Southwest 450 518 40,000  Level Atlanta Center
Sun 09:14:26 AM 34.4569 -86.7072 238° Southwest 540 621 40,000  Level Memphis Center
Sun 09:15:26 AM 34.3919 -86.8333 238° Southwest 479 551 40,000  Level Memphis Center
Sun 09:16:26 AM 34.3186 -86.9797 239° Southwest 473 544 40,000  Level Memphis Center
Sun 09:17:26 AM 34.2553 -87.1106 240° Southwest 468 539 40,000  Level Memphis Center
Sun 09:18:26 AM 34.1875 -87.2311 236° Southwest 457 526 40,000  Level Memphis Center
Sun 09:19:26 AM 34.1239 -87.3589 239° Southwest 446 513 40,000  Level Memphis Center
Sun 09:20:26 AM 34.0600 -87.4814 238° Southwest 451 519 40,000  Level Memphis Center
Sun 09:21:26 AM 33.9878 -87.6142 237° Southwest 445 512 40,000  Level Memphis Center
Sun 09:22:26 AM 33.9258 -87.7386 239° Southwest 445 512 40,000  Level Memphis Center
Sun 09:23:26 AM 33.8597 -87.8633 237° Southwest 444 511 40,000  Level Memphis Center
Sun 09:24:26 AM 33.7950 -87.9800 236° Southwest 451 519 40,000  Level Memphis Center
Sun 09:25:26 AM 33.7308 -88.1092 239° Southwest 456 525 40,000  Level Memphis Center
Sun 09:26:26 AM 33.6619 -88.2358 237° Southwest 462 532 40,000  Level Memphis Center
Sun 09:27:26 AM 33.5953 -88.3622 238° Southwest 462 532 40,000  Level Memphis Center
Sun 09:28:26 AM 33.5242 -88.5008 238° Southwest 462 532 40,000  Level Memphis Center
Sun 09:29:26 AM 33.4572 -88.6242 237° Southwest 457 526 40,000  Level Memphis Center
Sun 09:30:26 AM 33.3900 -88.7475 237° Southwest 457 526 40,000  Level Memphis Center
Sun 09:31:26 AM 33.3225 -88.8706 237° Southwest 457 526 40,000  Level Memphis Center
Sun 09:32:26 AM 33.2572 -88.9933 238° Southwest 457 526 40,000  Level Memphis Center
Sun 09:33:26 AM 33.1897 -89.1186 237° Southwest 452 520 40,000  Level Memphis Center
Sun 09:34:26 AM 33.1219 -89.2386 236° Southwest 452 520 40,000  Level Memphis Center
Sun 09:35:26 AM 33.0561 -89.3583 237° Southwest 447 514 40,000  Level Memphis Center
Sun 09:36:26 AM 32.9903 -89.4781 237° Southwest 447 514 40,000  Level Memphis Center
Sun 09:37:26 AM 32.9222 -89.6000 236° Southwest 447 514 40,000  Level Memphis Center
Sun 09:38:26 AM 32.8519 -89.7192 235° Southwest 447 514 40,000  Level Memphis Center
Sun 09:39:26 AM 32.7794 -89.8458 236° Southwest 458 527 40,000  Level Memphis Center
Sun 09:40:26 AM 32.7233 -89.9572 239° Southwest 458 527 40,000  Level Memphis Center
Sun 09:41:26 AM 32.6569 -90.0783 237° Southwest 453 521 40,000  Level Memphis Center
Sun 09:42:26 AM 32.5883 -90.1969 236° Southwest 447 514 40,000  Level Memphis Center
Sun 09:43:26 AM 32.5153 -90.3278 237° Southwest 442 509 40,000  Level Memphis Center
Sun 09:44:26 AM 32.4486 -90.4458 236° Southwest 437 503 40,000  Level Memphis Center
Sun 09:45:26 AM 32.3817 -90.5639 236° Southwest 437 503 40,000  Level Memphis Center
Sun 09:46:26 AM 32.3144 -90.6817 236° Southwest 437 503 40,000  Level Memphis Center
Sun 09:47:26 AM 32.2475 -90.8019 237° Southwest 437 503 40,000  Level Memphis Center
Sun 09:48:26 AM 32.1842 -90.9169 237° Southwest 437 503 40,000  Level Memphis Center
Sun 09:49:55 AM 32.0872 -91.0847 236° Southwest 433 498 40,000  Level Houston Center
Sun 09:50:57 AM 32.0178 -91.2008 235° Southwest 435 501 40,000  Level Houston Center
Sun 09:51:58 AM 31.9517 -91.3175 236° Southwest 429 494 40,000  Level Houston Center
Sun 09:53:00 AM 31.8892 -91.4383 239° Southwest 432 497 40,000  Level Houston Center
Sun 09:54:01 AM 31.8367 -91.5631 244° Southwest 429 494 40,000  Level Houston Center
Sun 09:55:03 AM 31.7736 -91.7103 243° Southwest 424 488 40,000  Level Houston Center
Sun 09:56:04 AM 31.7194 -91.8336 243° Southwest 424 488 40,000  Level Houston Center
Sun 09:57:06 AM 31.6658 -91.9542 242° Southwest 422 486 40,000  Level Houston Center
Sun 09:58:07 AM 31.6097 -92.0747 241° Southwest 424 488 40,000  Level Houston Center
Sun 09:59:09 AM 31.5569 -92.1950 243° Southwest 420 483 40,000  Level Houston Center
Sun 10:00:10 AM 31.5008 -92.3139 241° Southwest 418 481 40,000  Level Houston Center
Sun 10:01:12 AM 31.4464 -92.4336 242° Southwest 417 480 40,000  Level Houston Center
Sun 10:02:13 AM 31.3931 -92.5544 243° Southwest 418 481 40,000  Level Houston Center
Sun 10:03:15 AM 31.3283 -92.7000 243° Southwest 420 483 40,000  Level Houston Center
Sun 10:04:16 AM 31.2778 -92.8256 245° Southwest 425 489 40,000  Level Houston Center
Sun 10:05:18 AM 31.2222 -92.9439 241° Southwest 422 486 40,000  Level Houston Center
Sun 10:06:20 AM 31.1667 -93.0625 241° Southwest 420 483 40,000  Level Houston Center
Sun 10:07:21 AM 31.1128 -93.1844 243° Southwest 422 486 40,000  Level Houston Center
Sun 10:08:23 AM 31.0572 -93.3061 242° Southwest 427 491 40,000  Level Houston Center
Sun 10:09:24 AM 31.0025 -93.4264 242° Southwest 423 487 40,000 -293 Level Houston Center
Sun 10:10:26 AM 30.9358 -93.5711 242° Southwest 426 490 39,400 -774 Descending Houston Center
Sun 10:11:28 AM 30.8825 -93.6894 242° Southwest 418 481 38,400 -1,268 Descending Houston Center
Sun 10:12:29 AM 30.8283 -93.8056 242° Southwest 413 475 36,800 -2,293 Descending Houston Center
Sun 10:13:31 AM 30.7733 -93.9247 242° Southwest 421 484 33,700 -2,488 Descending Houston Center
Sun 10:14:32 AM 30.7153 -94.0500 242° Southwest 440 506 31,700 -2,390 Descending Houston Center
Sun 10:15:34 AM 30.6544 -94.1806 242° Southwest 458 527 28,800 -3,194 Descending Houston Center
Sun 10:16:36 AM 30.5822 -94.3350 242° Southwest 457 526 25,100 -3,385 Descending Houston Center
Sun 10:16:52 AM 30.5664 -94.3669 240° Southwest 456 525 24,400 -3,000 Descending Houston Center
Sun 10:17:34 AM 30.5228 -94.4578 241° Southwest 441 507 22,200 -2,933 Descending Houston Center
Sun 10:17:37 AM 30.5233 -94.4583 319° Northwest 441 507 22,200 -3,344 Level Houston Center
Sun 10:18:35 AM 30.4603 -94.5725 237° Southwest 422 486 18,800 -3,097 Descending Houston Center
Sun 10:18:39 AM 30.4633 -94.5686 48° Northeast 427 491 19,000 -2,903 Climbing Houston Center
Sun 10:19:37 AM 30.3908 -94.6786 233° Southwest 397 457 15,800 -3,387 Descending Houston Center
Sun 10:19:41 AM 30.3883 -94.6839 241° Southwest 411 473 15,500 -2,500 Descending Houston Center
Sun 10:20:37 AM 30.3231 -94.7842 233° Southwest 384 442 13,300 -2,226 Descending Houston Center
Sun 10:20:43 AM 30.3264 -94.7825 23° Northeast 385 443 13,200 -968 Descending Houston Center
Sun 10:21:39 AM 30.2664 -94.8711 232° Southwest 333 383 12,300 -984 Descending Houston Center
Sun 10:21:44 AM 30.2683 -94.8700 26° Northeast 349 402 12,200 -885 Descending Houston Center
Sun 10:22:40 AM 30.2097 -94.9606 233° Southwest 336 387 11,400 -871 Descending Houston Center
Sun 10:22:46 AM 30.2119 -94.9564 58° Northeast 338 389 11,300 -984 Descending Houston Center
Sun 10:23:41 AM 30.1528 -95.0475 233° Southwest 339 390 10,400 -968 Descending Houston Center
Sun 10:23:48 AM 30.1553 -95.0442 49° Northeast 340 391 10,300 -295 Descending Houston Center
Sun 10:24:42 AM 30.0653 -95.1017 209° Southwest 326 375 10,100 -295 Descending Houston Center
Sun 10:24:49 AM 30.0600 -95.1036 198° South 328 377 10,000  Descending Houston Center
Sun 10:25:43 AM 29.9806 -95.1386 201° Southwest 323 372 10,100 -97 Climbing Houston Center
Sun 10:25:51 AM 29.9761 -95.1397 192° South 324 373 9,900 -295 Descending Houston Center
Sun 10:26:44 AM 29.9078 -95.1692 200° South 256 295 9,800 -194 Descending Houston Center
Sun 10:26:53 AM 29.9044 -95.1703 196° South 281 323 9,700 -1,082 Descending Houston Center
Sun 10:27:45 AM 29.8431 -95.1964 200° South 251 289 8,700 -1,161 Descending Houston Center
Sun 10:27:55 AM 29.8389 -95.1986 205° Southwest 255 293 8,500 -590 Descending Houston Center
Sun 10:28:46 AM 29.7764 -95.2239 199° South 250 288 8,100 -492 Descending Houston Center
Sun 10:28:56 AM 29.7747 -95.2264 232° Southwest 249 287 8,000 -492 Descending Houston Center
Sun 10:29:47 AM 29.7061 -95.2347 186° South 241 277 7,600 -484 Descending Houston Center
Sun 10:29:58 AM 29.7078 -95.2344 North 244 281 7,500 -984 Descending Houston Center
Sun 10:30:48 AM 29.6389 -95.2358 181° South 238 274 6,600 -1,161 Descending Houston Center
Sun 10:31:00 AM 29.6292 -95.2378 190° South 241 277 6,300 -492 Descending Houston Center
Sun 10:31:49 AM 29.5742 -95.2389 181° South 231 266 6,100 -295 Descending Houston Center
Sun 10:32:01 AM 29.5661 -95.2406 190° South 235 270 6,000 -581 Descending Houston Center
Sun 10:32:51 AM 29.5214 -95.2836 220° Southwest 240 276 5,500 -774 Descending Houston Center
Sun 10:33:03 AM 29.5164 -95.2883 219° Southwest 245 282 5,200 -1,000 Descending Houston Center
Sun 10:33:51 AM 29.4736 -95.3350 224° Southwest 238 274 4,500 -968 Descending Houston Center
Sun 10:34:05 AM 29.4692 -95.3400 224° Southwest 237 273 4,200 -984 Descending Houston Center
Sun 10:34:52 AM 29.4458 -95.3961 244° Southwest 240 276 3,500 -787 Descending Houston Center
Sun 10:35:06 AM 29.4478 -95.4011 294° West 241 277 3,400 -393 Descending Houston Center
Sun 10:35:53 AM 29.4853 -95.4392 319° Northwest 208 239 3,100 -484 Descending Houston Center
Sun 10:36:08 AM 29.4908 -95.4375 15° North 229 264 2,900 -701 Descending Houston Center
Sun 10:37:10 AM 29.5369 -95.3994 36° Northeast 177 204 2,200 -449 Descending Houston Center
Sun 10:37:55 AM 29.5631 -95.3700 44° Northeast 161 185 2,100 -492 Descending Houston Center
Sun 10:38:11 AM 29.5697 -95.3622 45° Northeast 169 194 1,700 -787 Descending Houston Center
Sun 10:38:56 AM 29.5917 -95.3378 44° Northeast 136 157 1,300 -677 Descending Houston Center
Sun 10:39:13 AM 29.5994 -95.3286 46° Northeast 160 184 1,000 -590 Descending Houston Center
Sun 10:39:57 AM 29.6161 -95.3083 47° Northeast 124 143 700 -581 Descending Houston Center
Sun 10:40:15 AM 29.6233 -95.3039 28° Northeast 134 154 400 -1,000 Descending Houston Center

Login

Don't have an account? Register now (free) for customized features, flight alerts, and more!